sensor_id;sensor_type;location;lat;lon;timestamp;P1;P2;P0
70197;PMS5003;57582;-34.876;138.628;2023-07-29T00:01:47;8.27;6.03;2.73
70197;PMS5003;57582;-34.876;138.628;2023-07-29T00:04:47;5.93;5.93;3.33
70197;PMS5003;57582;-34.876;138.628;2023-07-29T00:07:48;6.93;6.67;3.43
70197;PMS5003;57582;-34.876;138.628;2023-07-29T00:10:47;6.13;5.13;2.73
70197;PMS5003;57582;-34.876;138.628;2023-07-29T00:13:48;5.60;5.60;3.47
70197;PMS5003;57582;-34.876;138.628;2023-07-29T00:16:47;9.30;6.73;3.73
70197;PMS5003;57582;-34.876;138.628;2023-07-29T00:19:48;6.43;5.83;3.13
70197;PMS5003;57582;-34.876;138.628;2023-07-29T00:22:47;6.70;6.47;3.40
70197;PMS5003;57582;-34.876;138.628;2023-07-29T00:25:48;7.20;6.23;3.57
70197;PMS5003;57582;-34.876;138.628;2023-07-29T00:28:48;6.70;6.40;3.03
70197;PMS5003;57582;-34.876;138.628;2023-07-29T00:31:48;7.87;7.87;3.80
70197;PMS5003;57582;-34.876;138.628;2023-07-29T00:34:48;8.10;6.63;3.67
70197;PMS5003;57582;-34.876;138.628;2023-07-29T00:37:48;7.87;7.77;3.77
70197;PMS5003;57582;-34.876;138.628;2023-07-29T00:40:48;6.80;6.40;3.33
70197;PMS5003;57582;-34.876;138.628;2023-07-29T00:43:48;4.43;4.20;2.13
70197;PMS5003;57582;-34.876;138.628;2023-07-29T00:46:49;7.67;6.73;4.67
70197;PMS5003;57582;-34.876;138.628;2023-07-29T00:49:48;4.70;4.70;2.67
70197;PMS5003;57582;-34.876;138.628;2023-07-29T00:52:49;8.00;8.00;5.40
70197;PMS5003;57582;-34.876;138.628;2023-07-29T00:55:48;9.77;9.77;6.83
70197;PMS5003;57582;-34.876;138.628;2023-07-29T00:58:48;2.37;2.13;0.87
70197;PMS5003;57582;-34.876;138.628;2023-07-29T01:01:48;5.43;2.73;1.30
70197;PMS5003;57582;-34.876;138.628;2023-07-29T01:04:57;2.23;1.13;0.37
70197;PMS5003;57582;-34.876;138.628;2023-07-29T01:07:59;2.33;1.43;0.27
70197;PMS5003;57582;-34.876;138.628;2023-07-29T01:10:58;1.73;1.63;0.53
70197;PMS5003;57582;-34.876;138.628;2023-07-29T01:13:53;3.10;1.40;0.97
70197;PMS5003;57582;-34.876;138.628;2023-07-29T01:16:53;1.80;1.80;0.97
70197;PMS5003;57582;-34.876;138.628;2023-07-29T01:20:08;1.37;1.37;0.37
70197;PMS5003;57582;-34.876;138.628;2023-07-29T01:22:48;2.60;1.80;0.00
70197;PMS5003;57582;-34.876;138.628;2023-07-29T01:25:48;1.63;1.23;0.07
70197;PMS5003;57582;-34.876;138.628;2023-07-29T01:28:48;1.27;0.80;0.00
70197;PMS5003;57582;-34.876;138.628;2023-07-29T01:31:54;2.33;1.00;0.33
70197;PMS5003;57582;-34.876;138.628;2023-07-29T01:34:51;0.97;0.53;0.00
70197;PMS5003;57582;-34.876;138.628;2023-07-29T01:37:51;2.43;1.13;0.00
70197;PMS5003;57582;-34.876;138.628;2023-07-29T01:40:50;0.50;0.20;0.00
70197;PMS5003;57582;-34.876;138.628;2023-07-29T01:43:49;0.13;0.13;0.00
70197;PMS5003;57582;-34.876;138.628;2023-07-29T01:46:49;0.93;0.80;0.00
70197;PMS5003;57582;-34.876;138.628;2023-07-29T01:49:48;0.63;0.10;0.00
70197;PMS5003;57582;-34.876;138.628;2023-07-29T01:52:48;1.03;0.77;0.00
70197;PMS5003;57582;-34.876;138.628;2023-07-29T01:55:49;1.97;0.63;0.00
70197;PMS5003;57582;-34.876;138.628;2023-07-29T01:58:48;0.97;0.27;0.13
70197;PMS5003;57582;-34.876;138.628;2023-07-29T02:01:48;1.43;0.27;0.17
70197;PMS5003;57582;-34.876;138.628;2023-07-29T02:04:48;1.07;0.17;0.17
70197;PMS5003;57582;-34.876;138.628;2023-07-29T02:07:48;0.80;0.03;0.00
70197;PMS5003;57582;-34.876;138.628;2023-07-29T02:10:48;0.20;0.20;0.00
70197;PMS5003;57582;-34.876;138.628;2023-07-29T02:13:48;0.70;0.00;0.00
70197;PMS5003;57582;-34.876;138.628;2023-07-29T02:16:48;1.60;0.00;0.00
70197;PMS5003;57582;-34.876;138.628;2023-07-29T02:19:48;1.77;0.77;0.00
70197;PMS5003;57582;-34.876;138.628;2023-07-29T02:22:48;1.60;0.47;0.00
70197;PMS5003;57582;-34.876;138.628;2023-07-29T02:25:48;1.73;0.70;0.03
70197;PMS5003;57582;-34.876;138.628;2023-07-29T02:28:48;0.70;0.17;0.00
70197;PMS5003;57582;-34.876;138.628;2023-07-29T02:31:48;1.53;1.53;0.57
70197;PMS5003;57582;-34.876;138.628;2023-07-29T02:34:49;1.10;0.70;0.00
70197;PMS5003;57582;-34.876;138.628;2023-07-29T02:37:48;2.13;0.87;0.00
70197;PMS5003;57582;-34.876;138.628;2023-07-29T02:40:48;1.37;0.77;0.00
70197;PMS5003;57582;-34.876;138.628;2023-07-29T02:43:49;3.03;1.73;0.00
70197;PMS5003;57582;-34.876;138.628;2023-07-29T02:46:48;1.20;1.20;0.00
70197;PMS5003;57582;-34.876;138.628;2023-07-29T02:49:48;0.67;0.53;0.00
70197;PMS5003;57582;-34.876;138.628;2023-07-29T02:52:48;0.73;0.73;0.23
70197;PMS5003;57582;-34.876;138.628;2023-07-29T02:55:49;1.70;1.33;0.20
70197;PMS5003;57582;-34.876;138.628;2023-07-29T02:58:48;3.17;1.67;0.00
70197;PMS5003;57582;-34.876;138.628;2023-07-29T03:01:48;1.43;0.90;0.33
70197;PMS5003;57582;-34.876;138.628;2023-07-29T03:04:48;1.43;1.10;0.00
70197;PMS5003;57582;-34.876;138.628;2023-07-29T03:07:48;1.23;0.93;0.00
70197;PMS5003;57582;-34.876;138.628;2023-07-29T03:10:48;0.87;0.87;0.10
70197;PMS5003;57582;-34.876;138.628;2023-07-29T03:13:48;2.20;0.77;0.20
70197;PMS5003;57582;-34.876;138.628;2023-07-29T03:16:48;0.90;0.90;0.00
70197;PMS5003;57582;-34.876;138.628;2023-07-29T03:19:48;0.53;0.53;0.00
70197;PMS5003;57582;-34.876;138.628;2023-07-29T03:22:48;1.63;1.33;0.23
70197;PMS5003;57582;-34.876;138.628;2023-07-29T03:25:49;2.10;1.37;0.47
70197;PMS5003;57582;-34.876;138.628;2023-07-29T03:28:48;1.07;0.47;0.00
70197;PMS5003;57582;-34.876;138.628;2023-07-29T03:31:49;1.33;0.77;0.00
70197;PMS5003;57582;-34.876;138.628;2023-07-29T03:34:48;1.23;0.90;0.23
70197;PMS5003;57582;-34.876;138.628;2023-07-29T03:37:48;1.43;1.20;0.33
70197;PMS5003;57582;-34.876;138.628;2023-07-29T03:40:48;1.23;0.70;0.00
70197;PMS5003;57582;-34.876;138.628;2023-07-29T03:43:49;1.57;1.57;0.00
70197;PMS5003;57582;-34.876;138.628;2023-07-29T03:46:48;1.37;1.33;0.00
70197;PMS5003;57582;-34.876;138.628;2023-07-29T03:49:48;1.73;1.33;0.10
70197;PMS5003;57582;-34.876;138.628;2023-07-29T03:52:48;3.23;2.47;0.97
70197;PMS5003;57582;-34.876;138.628;2023-07-29T03:55:48;1.17;1.00;0.20
70197;PMS5003;57582;-34.876;138.628;2023-07-29T03:58:48;1.23;1.23;0.47
70197;PMS5003;57582;-34.876;138.628;2023-07-29T04:01:48;0.37;0.37;0.00
70197;PMS5003;57582;-34.876;138.628;2023-07-29T04:04:48;1.80;0.63;0.00
70197;PMS5003;57582;-34.876;138.628;2023-07-29T04:07:48;0.77;0.20;0.00
70197;PMS5003;57582;-34.876;138.628;2023-07-29T04:10:48;1.37;0.57;0.07
70197;PMS5003;57582;-34.876;138.628;2023-07-29T04:13:48;2.80;0.80;0.00
70197;PMS5003;57582;-34.876;138.628;2023-07-29T04:16:48;0.97;0.23;0.00
70197;PMS5003;57582;-34.876;138.628;2023-07-29T04:19:48;1.33;0.87;0.27
70197;PMS5003;57582;-34.876;138.628;2023-07-29T04:22:48;1.13;1.13;0.23
70197;PMS5003;57582;-34.876;138.628;2023-07-29T04:25:48;1.47;1.00;0.13
70197;PMS5003;57582;-34.876;138.628;2023-07-29T04:28:48;1.63;0.83;0.00
70197;PMS5003;57582;-34.876;138.628;2023-07-29T04:31:50;1.57;1.57;0.00
70197;PMS5003;57582;-34.876;138.628;2023-07-29T04:34:48;0.50;0.50;0.00
70197;PMS5003;57582;-34.876;138.628;2023-07-29T04:37:49;0.70;0.70;0.00
70197;PMS5003;57582;-34.876;138.628;2023-07-29T04:40:49;2.17;0.70;0.33
70197;PMS5003;57582;-34.876;138.628;2023-07-29T04:43:48;1.80;0.97;0.00
70197;PMS5003;57582;-34.876;138.628;2023-07-29T04:46:48;0.90;0.90;0.43
70197;PMS5003;57582;-34.876;138.628;2023-07-29T04:49:48;1.30;0.90;0.10
70197;PMS5003;57582;-34.876;138.628;2023-07-29T04:52:48;1.70;0.23;0.00
70197;PMS5003;57582;-34.876;138.628;2023-07-29T04:55:48;1.07;0.30;0.00
70197;PMS5003;57582;-34.876;138.628;2023-07-29T04:58:48;0.50;0.50;0.00
70197;PMS5003;57582;-34.876;138.628;2023-07-29T05:01:33;1.07;0.43;0.00
70197;PMS5003;57582;-34.876;138.628;2023-07-29T05:04:16;10.50;4.60;1.87
70197;PMS5003;57582;-34.876;138.628;2023-07-29T05:07:17;2.03;0.77;0.13
70197;PMS5003;57582;-34.876;138.628;2023-07-29T05:10:16;3.47;2.23;0.87
70197;PMS5003;57582;-34.876;138.628;2023-07-29T05:13:17;0.97;0.70;0.30
70197;PMS5003;57582;-34.876;138.628;2023-07-29T05:16:17;2.87;1.53;0.00
70197;PMS5003;57582;-34.876;138.628;2023-07-29T05:19:17;0.83;0.57;0.00
70197;PMS5003;57582;-34.876;138.628;2023-07-29T05:22:16;1.23;0.13;0.00
70197;PMS5003;57582;-34.876;138.628;2023-07-29T05:25:16;1.77;0.50;0.00
70197;PMS5003;57582;-34.876;138.628;2023-07-29T05:28:16;1.87;0.63;0.00
70197;PMS5003;57582;-34.876;138.628;2023-07-29T05:31:17;1.33;0.60;0.00
70197;PMS5003;57582;-34.876;138.628;2023-07-29T05:34:16;0.30;0.10;0.00
70197;PMS5003;57582;-34.876;138.628;2023-07-29T05:37:16;1.83;0.10;0.00
70197;PMS5003;57582;-34.876;138.628;2023-07-29T05:40:16;0.20;0.20;0.00
70197;PMS5003;57582;-34.876;138.628;2023-07-29T05:43:17;0.60;0.43;0.00
70197;PMS5003;57582;-34.876;138.628;2023-07-29T05:46:16;2.20;0.40;0.00
70197;PMS5003;57582;-34.876;138.628;2023-07-29T05:49:16;0.67;0.40;0.00
70197;PMS5003;57582;-34.876;138.628;2023-07-29T05:52:17;1.07;0.57;0.00
70197;PMS5003;57582;-34.876;138.628;2023-07-29T05:55:17;1.40;0.67;0.00
70197;PMS5003;57582;-34.876;138.628;2023-07-29T05:58:17;0.50;0.27;0.10
70197;PMS5003;57582;-34.876;138.628;2023-07-29T06:01:16;2.53;1.57;0.00
70197;PMS5003;57582;-34.876;138.628;2023-07-29T06:04:16;2.80;0.40;0.00
70197;PMS5003;57582;-34.876;138.628;2023-07-29T06:07:17;1.43;0.57;0.00
70197;PMS5003;57582;-34.876;138.628;2023-07-29T06:10:17;0.33;0.33;0.00
70197;PMS5003;57582;-34.876;138.628;2023-07-29T06:13:16;0.33;0.33;0.00
70197;PMS5003;57582;-34.876;138.628;2023-07-29T06:16:16;0.33;0.33;0.00
70197;PMS5003;57582;-34.876;138.628;2023-07-29T06:19:18;0.10;0.10;0.00
70197;PMS5003;57582;-34.876;138.628;2023-07-29T06:22:17;2.00;1.07;0.00
70197;PMS5003;57582;-34.876;138.628;2023-07-29T06:25:16;0.70;0.03;0.00
70197;PMS5003;57582;-34.876;138.628;2023-07-29T06:28:17;0.27;0.00;0.00
70197;PMS5003;57582;-34.876;138.628;2023-07-29T06:31:17;1.47;0.00;0.00
70197;PMS5003;57582;-34.876;138.628;2023-07-29T06:34:17;1.17;0.77;0.00
70197;PMS5003;57582;-34.876;138.628;2023-07-29T06:37:17;0.90;0.47;0.00
70197;PMS5003;57582;-34.876;138.628;2023-07-29T06:40:16;1.27;0.73;0.00
70197;PMS5003;57582;-34.876;138.628;2023-07-29T06:43:17;0.70;0.20;0.00
70197;PMS5003;57582;-34.876;138.628;2023-07-29T06:46:16;0.73;0.10;0.00
70197;PMS5003;57582;-34.876;138.628;2023-07-29T06:49:16;2.40;0.13;0.00
70197;PMS5003;57582;-34.876;138.628;2023-07-29T06:52:16;1.67;0.17;0.00
70197;PMS5003;57582;-34.876;138.628;2023-07-29T06:55:17;0.97;0.97;0.07
70197;PMS5003;57582;-34.876;138.628;2023-07-29T06:58:16;1.70;1.10;0.20
70197;PMS5003;57582;-34.876;138.628;2023-07-29T07:01:16;1.33;1.33;0.50
70197;PMS5003;57582;-34.876;138.628;2023-07-29T07:04:16;0.77;0.77;0.00
70197;PMS5003;57582;-34.876;138.628;2023-07-29T07:07:17;2.60;1.53;0.40
70197;PMS5003;57582;-34.876;138.628;2023-07-29T07:10:17;1.07;1.07;0.13
70197;PMS5003;57582;-34.876;138.628;2023-07-29T07:13:17;1.60;0.63;0.00
70197;PMS5003;57582;-34.876;138.628;2023-07-29T07:16:16;0.77;0.37;0.00
70197;PMS5003;57582;-34.876;138.628;2023-07-29T07:19:17;2.10;0.00;0.00
70197;PMS5003;57582;-34.876;138.628;2023-07-29T07:22:16;3.47;2.67;1.30
70197;PMS5003;57582;-34.876;138.628;2023-07-29T07:25:16;2.20;1.20;0.30
70197;PMS5003;57582;-34.876;138.628;2023-07-29T07:28:16;1.20;0.90;0.37
70197;PMS5003;57582;-34.876;138.628;2023-07-29T07:31:18;2.27;0.77;0.03
70197;PMS5003;57582;-34.876;138.628;2023-07-29T07:34:16;82.00;70.17;47.47
70197;PMS5003;57582;-34.876;138.628;2023-07-29T07:37:16;13.17;11.30;7.10
70197;PMS5003;57582;-34.876;138.628;2023-07-29T07:40:17;22.63;19.83;12.67
70197;PMS5003;57582;-34.876;138.628;2023-07-29T07:43:17;6.63;5.73;2.80
70197;PMS5003;57582;-34.876;138.628;2023-07-29T07:46:24;3.37;2.80;1.30
70197;PMS5003;57582;-34.876;138.628;2023-07-29T07:48:45;3.93;2.73;1.13
70197;PMS5003;57582;-34.876;138.628;2023-07-29T07:51:45;1.87;1.60;0.53
70197;PMS5003;57582;-34.876;138.628;2023-07-29T07:54:45;0.73;0.57;0.10
70197;PMS5003;57582;-34.876;138.628;2023-07-29T07:57:45;1.90;1.13;0.77
70197;PMS5003;57582;-34.876;138.628;2023-07-29T08:00:45;2.97;1.40;0.27
70197;PMS5003;57582;-34.876;138.628;2023-07-29T08:03:45;4.27;2.10;1.20
70197;PMS5003;57582;-34.876;138.628;2023-07-29T08:06:45;5.33;3.70;1.67
70197;PMS5003;57582;-34.876;138.628;2023-07-29T08:09:45;1.77;1.57;0.27
70197;PMS5003;57582;-34.876;138.628;2023-07-29T08:12:45;2.67;1.77;0.73
70197;PMS5003;57582;-34.876;138.628;2023-07-29T08:15:47;2.00;1.63;0.80
70197;PMS5003;57582;-34.876;138.628;2023-07-29T08:18:46;3.73;3.23;1.20
70197;PMS5003;57582;-34.876;138.628;2023-07-29T08:21:45;2.00;2.00;1.03
70197;PMS5003;57582;-34.876;138.628;2023-07-29T08:24:45;2.87;1.27;0.37
70197;PMS5003;57582;-34.876;138.628;2023-07-29T08:27:45;3.37;3.17;1.53
70197;PMS5003;57582;-34.876;138.628;2023-07-29T08:30:45;3.93;3.93;2.57
70197;PMS5003;57582;-34.876;138.628;2023-07-29T08:33:45;7.30;6.57;4.03
70197;PMS5003;57582;-34.876;138.628;2023-07-29T08:36:45;6.50;6.03;3.77
70197;PMS5003;57582;-34.876;138.628;2023-07-29T08:39:45;8.17;7.03;4.13
70197;PMS5003;57582;-34.876;138.628;2023-07-29T08:42:47;7.13;6.30;4.13
70197;PMS5003;57582;-34.876;138.628;2023-07-29T08:45:46;8.50;7.43;3.67
70197;PMS5003;57582;-34.876;138.628;2023-07-29T08:48:46;11.73;10.37;7.13
70197;PMS5003;57582;-34.876;138.628;2023-07-29T08:51:47;9.43;8.73;5.63
70197;PMS5003;57582;-34.876;138.628;2023-07-29T08:54:46;12.63;11.80;6.63
70197;PMS5003;57582;-34.876;138.628;2023-07-29T08:57:45;7.27;6.40;3.97
70197;PMS5003;57582;-34.876;138.628;2023-07-29T09:00:46;10.33;10.33;7.30
70197;PMS5003;57582;-34.876;138.628;2023-07-29T09:03:45;11.13;10.03;6.37
70197;PMS5003;57582;-34.876;138.628;2023-07-29T09:06:47;24.60;23.20;16.07
70197;PMS5003;57582;-34.876;138.628;2023-07-29T09:09:45;32.50;27.57;17.37
70197;PMS5003;57582;-34.876;138.628;2023-07-29T09:12:45;27.47;24.07;16.27
70197;PMS5003;57582;-34.876;138.628;2023-07-29T09:15:45;14.57;12.43;8.17
70197;PMS5003;57582;-34.876;138.628;2023-07-29T09:18:49;11.70;10.87;6.37
70197;PMS5003;57582;-34.876;138.628;2023-07-29T09:21:46;10.80;10.40;6.40
70197;PMS5003;57582;-34.876;138.628;2023-07-29T09:24:46;10.73;9.97;6.70
70197;PMS5003;57582;-34.876;138.628;2023-07-29T09:27:45;12.67;10.30;7.23
70197;PMS5003;57582;-34.876;138.628;2023-07-29T09:30:46;15.10;11.40;7.13
70197;PMS5003;57582;-34.876;138.628;2023-07-29T09:33:45;12.77;11.97;9.23
70197;PMS5003;57582;-34.876;138.628;2023-07-29T09:36:45;13.97;13.17;9.10
70197;PMS5003;57582;-34.876;138.628;2023-07-29T09:39:46;16.30;13.23;8.30
70197;PMS5003;57582;-34.876;138.628;2023-07-29T09:42:50;17.90;15.50;11.30
70197;PMS5003;57582;-34.876;138.628;2023-07-29T09:45:46;22.87;21.90;13.20
70197;PMS5003;57582;-34.876;138.628;2023-07-29T09:48:45;19.27;18.37;12.07
70197;PMS5003;57582;-34.876;138.628;2023-07-29T09:51:45;21.60;20.07;12.73
70197;PMS5003;57582;-34.876;138.628;2023-07-29T09:54:47;39.23;36.27;22.43
70197;PMS5003;57582;-34.876;138.628;2023-07-29T09:57:45;37.33;33.10;22.00
70197;PMS5003;57582;-34.876;138.628;2023-07-29T10:00:46;56.60;45.60;30.07
70197;PMS5003;57582;-34.876;138.628;2023-07-29T10:03:45;40.87;35.80;23.13
70197;PMS5003;57582;-34.876;138.628;2023-07-29T10:06:46;35.20;31.07;20.07
70197;PMS5003;57582;-34.876;138.628;2023-07-29T10:09:46;49.67;42.47;27.13
70197;PMS5003;57582;-34.876;138.628;2023-07-29T10:12:46;57.93;47.70;29.60
70197;PMS5003;57582;-34.876;138.628;2023-07-29T10:15:45;64.57;52.17;35.17
70197;PMS5003;57582;-34.876;138.628;2023-07-29T10:18:46;36.00;34.27;22.40
70197;PMS5003;57582;-34.876;138.628;2023-07-29T10:21:48;21.33;19.70;15.27
70197;PMS5003;57582;-34.876;138.628;2023-07-29T10:24:47;34.77;31.27;19.93
70197;PMS5003;57582;-34.876;138.628;2023-07-29T10:27:52;34.23;30.73;19.83
70197;PMS5003;57582;-34.876;138.628;2023-07-29T10:30:46;32.67;28.57;18.00
70197;PMS5003;57582;-34.876;138.628;2023-07-29T10:33:45;39.00;35.13;20.67
70197;PMS5003;57582;-34.876;138.628;2023-07-29T10:36:45;34.27;31.07;19.43
70197;PMS5003;57582;-34.876;138.628;2023-07-29T10:39:54;43.30;38.47;25.97
70197;PMS5003;57582;-34.876;138.628;2023-07-29T10:43:09;35.27;32.40;21.43
70197;PMS5003;57582;-34.876;138.628;2023-07-29T10:45:45;37.67;33.53;22.20
70197;PMS5003;57582;-34.876;138.628;2023-07-29T10:51:45;42.80;36.97;24.37
70197;PMS5003;57582;-34.876;138.628;2023-07-29T10:54:47;41.20;37.77;24.73
70197;PMS5003;57582;-34.876;138.628;2023-07-29T10:57:45;35.17;32.97;22.17
70197;PMS5003;57582;-34.876;138.628;2023-07-29T11:00:46;36.47;34.77;23.97
70197;PMS5003;57582;-34.876;138.628;2023-07-29T11:04:00;37.23;34.23;21.60
70197;PMS5003;57582;-34.876;138.628;2023-07-29T11:12:47;34.27;31.47;20.23
70197;PMS5003;57582;-34.876;138.628;2023-07-29T11:15:46;29.87;28.17;22.30
70197;PMS5003;57582;-34.876;138.628;2023-07-29T11:18:47;32.40;30.50;20.50
70197;PMS5003;57582;-34.876;138.628;2023-07-29T11:21:47;48.10;39.60;26.87
70197;PMS5003;57582;-34.876;138.628;2023-07-29T11:24:45;45.93;39.13;28.43
70197;PMS5003;57582;-34.876;138.628;2023-07-29T11:27:46;42.97;36.03;25.07
70197;PMS5003;57582;-34.876;138.628;2023-07-29T11:30:46;44.07;38.30;24.83
70197;PMS5003;57582;-34.876;138.628;2023-07-29T11:33:45;39.83;35.57;23.30
70197;PMS5003;57582;-34.876;138.628;2023-07-29T11:36:46;49.87;39.30;26.50
70197;PMS5003;57582;-34.876;138.628;2023-07-29T11:39:45;45.07;39.00;26.10
70197;PMS5003;57582;-34.876;138.628;2023-07-29T11:42:47;31.70;27.77;21.77
70197;PMS5003;57582;-34.876;138.628;2023-07-29T11:45:45;41.67;35.63;24.63
70197;PMS5003;57582;-34.876;138.628;2023-07-29T11:48:45;32.37;30.00;20.43
70197;PMS5003;57582;-34.876;138.628;2023-07-29T11:51:46;35.87;33.23;22.37
70197;PMS5003;57582;-34.876;138.628;2023-07-29T11:54:49;38.43;33.10;20.87
70197;PMS5003;57582;-34.876;138.628;2023-07-29T11:57:50;41.53;37.70;25.13
70197;PMS5003;57582;-34.876;138.628;2023-07-29T12:00:46;52.10;43.37;27.13
70197;PMS5003;57582;-34.876;138.628;2023-07-29T12:03:45;42.60;37.17;25.20
70197;PMS5003;57582;-34.876;138.628;2023-07-29T12:06:47;49.33;41.90;27.30
70197;PMS5003;57582;-34.876;138.628;2023-07-29T12:09:46;39.97;35.93;23.93
70197;PMS5003;57582;-34.876;138.628;2023-07-29T12:12:47;42.97;36.70;23.90
70197;PMS5003;57582;-34.876;138.628;2023-07-29T12:15:45;43.43;36.37;23.90
70197;PMS5003;57582;-34.876;138.628;2023-07-29T12:18:46;40.63;36.33;23.90
70197;PMS5003;57582;-34.876;138.628;2023-07-29T12:21:45;42.57;37.37;25.23
70197;PMS5003;57582;-34.876;138.628;2023-07-29T12:24:46;37.37;33.43;23.57
70197;PMS5003;57582;-34.876;138.628;2023-07-29T12:27:46;40.87;34.40;23.13
70197;PMS5003;57582;-34.876;138.628;2023-07-29T12:30:46;41.83;35.13;24.53
70197;PMS5003;57582;-34.876;138.628;2023-07-29T12:33:46;40.80;35.57;24.33
70197;PMS5003;57582;-34.876;138.628;2023-07-29T12:36:48;39.27;36.57;25.37
70197;PMS5003;57582;-34.876;138.628;2023-07-29T12:39:50;37.60;34.47;22.60
70197;PMS5003;57582;-34.876;138.628;2023-07-29T12:42:46;41.93;37.87;25.13
70197;PMS5003;57582;-34.876;138.628;2023-07-29T12:45:45;36.33;33.87;22.10
70197;PMS5003;57582;-34.876;138.628;2023-07-29T12:48:45;34.83;33.10;22.30
70197;PMS5003;57582;-34.876;138.628;2023-07-29T12:51:46;45.40;38.23;25.33
70197;PMS5003;57582;-34.876;138.628;2023-07-29T12:54:46;33.57;33.03;22.53
70197;PMS5003;57582;-34.876;138.628;2023-07-29T12:57:46;46.27;39.30;25.10
70197;PMS5003;57582;-34.876;138.628;2023-07-29T13:00:45;34.17;32.60;21.67
70197;PMS5003;57582;-34.876;138.628;2023-07-29T13:03:45;42.00;38.40;25.37
70197;PMS5003;57582;-34.876;138.628;2023-07-29T13:06:46;35.53;31.07;19.67
70197;PMS5003;57582;-34.876;138.628;2023-07-29T13:09:45;37.33;32.43;22.97
70197;PMS5003;57582;-34.876;138.628;2023-07-29T13:12:45;41.93;37.73;23.80
70197;PMS5003;57582;-34.876;138.628;2023-07-29T13:15:45;32.43;29.90;17.97
70197;PMS5003;57582;-34.876;138.628;2023-07-29T13:18:46;40.17;33.77;21.20
70197;PMS5003;57582;-34.876;138.628;2023-07-29T13:21:45;46.83;40.10;24.60
70197;PMS5003;57582;-34.876;138.628;2023-07-29T13:24:46;71.53;56.30;36.80
70197;PMS5003;57582;-34.876;138.628;2023-07-29T13:27:45;71.93;56.43;36.57
70197;PMS5003;57582;-34.876;138.628;2023-07-29T13:30:46;55.13;46.63;29.63
70197;PMS5003;57582;-34.876;138.628;2023-07-29T13:33:45;49.10;39.90;26.60
70197;PMS5003;57582;-34.876;138.628;2023-07-29T13:36:46;44.70;37.57;24.67
70197;PMS5003;57582;-34.876;138.628;2023-07-29T13:39:45;38.83;32.70;21.30
70197;PMS5003;57582;-34.876;138.628;2023-07-29T13:42:46;44.33;38.07;24.60
70197;PMS5003;57582;-34.876;138.628;2023-07-29T13:45:46;67.27;54.47;32.77
70197;PMS5003;57582;-34.876;138.628;2023-07-29T13:48:45;62.63;50.47;29.77
70197;PMS5003;57582;-34.876;138.628;2023-07-29T13:51:45;69.40;54.03;34.67
70197;PMS5003;57582;-34.876;138.628;2023-07-29T13:54:46;73.80;58.20;33.33
70197;PMS5003;57582;-34.876;138.628;2023-07-29T13:57:46;54.00;41.97;23.60
70197;PMS5003;57582;-34.876;138.628;2023-07-29T14:00:45;46.93;38.03;23.30
70197;PMS5003;57582;-34.876;138.628;2023-07-29T14:03:46;62.97;50.67;29.23
70197;PMS5003;57582;-34.876;138.628;2023-07-29T14:06:46;13.47;11.53;6.53
70197;PMS5003;57582;-34.876;138.628;2023-07-29T14:09:45;46.73;37.33;19.47
70197;PMS5003;57582;-34.876;138.628;2023-07-29T14:12:45;76.97;64.20;32.73
70197;PMS5003;57582;-34.876;138.628;2023-07-29T14:15:45;64.00;50.80;28.83
70197;PMS5003;57582;-34.876;138.628;2023-07-29T14:18:46;68.13;55.67;31.47
70197;PMS5003;57582;-34.876;138.628;2023-07-29T14:21:45;78.30;59.40;35.40
70197;PMS5003;57582;-34.876;138.628;2023-07-29T14:24:45;13.00;12.77;7.50
70197;PMS5003;57582;-34.876;138.628;2023-07-29T14:27:46;70.70;54.93;32.30
70197;PMS5003;57582;-34.876;138.628;2023-07-29T14:30:46;57.43;47.73;30.07
70197;PMS5003;57582;-34.876;138.628;2023-07-29T14:33:46;108.83;90.33;48.47
70197;PMS5003;57582;-34.876;138.628;2023-07-29T14:36:45;35.80;33.13;19.90
70197;PMS5003;57582;-34.876;138.628;2023-07-29T14:39:45;29.90;27.30;15.40
70197;PMS5003;57582;-34.876;138.628;2023-07-29T14:42:46;28.33;25.67;16.90
70197;PMS5003;57582;-34.876;138.628;2023-07-29T14:45:45;45.50;38.23;24.90
70197;PMS5003;57582;-34.876;138.628;2023-07-29T14:48:45;41.50;35.90;22.53
70197;PMS5003;57582;-34.876;138.628;2023-07-29T14:51:45;45.87;40.47;26.47
70197;PMS5003;57582;-34.876;138.628;2023-07-29T14:54:46;31.90;29.83;19.57
70197;PMS5003;57582;-34.876;138.628;2023-07-29T14:57:46;51.13;43.50;27.30
70197;PMS5003;57582;-34.876;138.628;2023-07-29T15:00:45;41.80;38.03;24.33
70197;PMS5003;57582;-34.876;138.628;2023-07-29T15:03:45;34.67;32.70;20.80
70197;PMS5003;57582;-34.876;138.628;2023-07-29T15:06:46;35.90;33.30;20.30
70197;PMS5003;57582;-34.876;138.628;2023-07-29T15:09:46;18.43;17.80;10.37
70197;PMS5003;57582;-34.876;138.628;2023-07-29T15:12:45;25.67;24.80;16.63
70197;PMS5003;57582;-34.876;138.628;2023-07-29T15:15:45;29.83;28.07;19.03
70197;PMS5003;57582;-34.876;138.628;2023-07-29T15:18:46;32.93;31.80;19.37
70197;PMS5003;57582;-34.876;138.628;2023-07-29T15:21:46;59.17;49.13;29.93
70197;PMS5003;57582;-34.876;138.628;2023-07-29T15:24:45;44.50;38.00;23.80
70197;PMS5003;57582;-34.876;138.628;2023-07-29T15:27:46;17.97;14.87;9.17
70197;PMS5003;57582;-34.876;138.628;2023-07-29T15:30:46;22.77;21.53;14.77
70197;PMS5003;57582;-34.876;138.628;2023-07-29T15:33:45;43.80;38.87;26.17
70197;PMS5003;57582;-34.876;138.628;2023-07-29T15:36:45;16.13;14.30;8.50
70197;PMS5003;57582;-34.876;138.628;2023-07-29T15:39:45;19.33;17.40;10.87
70197;PMS5003;57582;-34.876;138.628;2023-07-29T15:42:46;22.27;18.07;11.60
70197;PMS5003;57582;-34.876;138.628;2023-07-29T15:45:46;8.93;8.80;5.70
70197;PMS5003;57582;-34.876;138.628;2023-07-29T15:48:46;4.00;3.53;1.43
70197;PMS5003;57582;-34.876;138.628;2023-07-29T15:51:45;5.57;5.57;3.57
70197;PMS5003;57582;-34.876;138.628;2023-07-29T15:54:47;7.60;7.10;3.30
70197;PMS5003;57582;-34.876;138.628;2023-07-29T15:57:46;4.33;3.03;2.10
70197;PMS5003;57582;-34.876;138.628;2023-07-29T16:00:46;2.80;2.07;1.37
70197;PMS5003;57582;-34.876;138.628;2023-07-29T16:03:46;8.83;6.83;4.30
70197;PMS5003;57582;-34.876;138.628;2023-07-29T16:06:46;14.40;13.87;8.53
70197;PMS5003;57582;-34.876;138.628;2023-07-29T16:09:46;13.83;12.27;7.47
70197;PMS5003;57582;-34.876;138.628;2023-07-29T16:12:46;3.87;3.87;1.93
70197;PMS5003;57582;-34.876;138.628;2023-07-29T16:15:46;16.57;16.13;9.97
70197;PMS5003;57582;-34.876;138.628;2023-07-29T16:18:46;8.27;7.80;4.30
70197;PMS5003;57582;-34.876;138.628;2023-07-29T16:21:46;9.17;9.03;5.40
70197;PMS5003;57582;-34.876;138.628;2023-07-29T16:24:46;15.30;13.47;10.00
70197;PMS5003;57582;-34.876;138.628;2023-07-29T16:27:46;16.83;15.03;9.90
70197;PMS5003;57582;-34.876;138.628;2023-07-29T16:30:46;14.80;13.73;8.33
70197;PMS5003;57582;-34.876;138.628;2023-07-29T16:33:46;8.00;7.47;4.10
70197;PMS5003;57582;-34.876;138.628;2023-07-29T16:36:46;11.23;10.07;6.63
70197;PMS5003;57582;-34.876;138.628;2023-07-29T16:39:46;7.10;6.27;3.63